Rochedo, Brazil
Current Conditions -  °F | °C
As of 6:00 PM on Sunday 21 Dec 2014 (Local Time) from SBCG Reporting Station
Rain Showers Rain Showers  
Wind Chill: 75°   Ceiling: Unl
Heat Index: 75°   Visibility: 6mi
Dew Point: 73°   Wind: 13mph
Humidity: 94%   Direction: 320°NW
Pressure: NA   Gusts: NA
Location:  19.95°S, 54.87°W
Report Text: SBCG 212100Z 32011KT 9999 VCSH FEW015 SCT033 FEW045TCU 24/23 Q1008 RERA
Loading
Personal Weather Stations






























Interactive Weather Map New forecast layout! Learn more

10-Day Weather Forecast

Advertisements
Track Severe Weather on mobile